createdAt,value
2022-12-11T00:01:14.456Z,6.38
2022-12-11T00:03:41.797Z,6.00
2022-12-11T00:06:12.309Z,6.30
2022-12-11T00:08:40.308Z,6.90
2022-12-11T00:11:10.101Z,5.93
2022-12-11T00:13:37.209Z,6.40
2022-12-11T00:16:04.594Z,6.85
2022-12-11T00:18:31.948Z,6.30
2022-12-11T00:21:03.915Z,7.18
2022-12-11T00:23:31.506Z,7.00
2022-12-11T00:25:58.771Z,6.32
2022-12-11T00:28:25.820Z,7.15
2022-12-11T00:30:53.100Z,5.88
2022-12-11T00:33:20.145Z,6.70
2022-12-11T00:35:48.115Z,7.35
2022-12-11T00:38:17.693Z,7.10
2022-12-11T00:40:45.159Z,6.82
2022-12-11T00:43:12.775Z,6.82
2022-12-11T00:45:43.014Z,6.70
2022-12-11T00:48:11.207Z,7.88
2022-12-11T00:50:39.127Z,7.35
2022-12-11T00:53:07.392Z,8.10
2022-12-11T00:55:39.107Z,7.57
2022-12-11T00:58:06.273Z,6.03
2022-12-11T01:00:33.773Z,7.00
2022-12-11T01:03:01.025Z,5.75
2022-12-11T01:05:28.127Z,6.35
2022-12-11T01:07:55.276Z,5.88
2022-12-11T01:10:24.408Z,6.50
2022-12-11T01:13:01.675Z,6.20
2022-12-11T01:15:33.653Z,5.63
2022-12-11T01:18:02.663Z,6.40
2022-12-11T01:20:29.787Z,6.35
2022-12-11T01:22:58.997Z,6.82
2022-12-11T01:25:27.628Z,6.32
2022-12-11T01:27:56.115Z,7.35
2022-12-11T01:30:25.133Z,7.03
2022-12-11T01:32:52.602Z,7.15
2022-12-11T01:35:20.074Z,7.00
2022-12-11T01:37:47.738Z,6.55
2022-12-11T01:40:18.500Z,7.00
2022-12-11T01:42:45.923Z,6.20
2022-12-11T01:45:34.663Z,5.97
2022-12-11T01:48:11.174Z,6.28
2022-12-11T01:50:50.701Z,6.60
2022-12-11T01:53:23.312Z,6.25
2022-12-11T01:55:53.636Z,6.68
2022-12-11T01:58:23.238Z,6.60
2022-12-11T02:00:51.672Z,7.45
2022-12-11T02:03:18.884Z,6.65
2022-12-11T02:05:46.171Z,7.00
2022-12-11T02:08:13.519Z,6.53
2022-12-11T02:10:49.193Z,7.28
2022-12-11T02:13:25.359Z,11.45
2022-12-11T02:16:04.651Z,11.07
2022-12-11T02:18:33.858Z,11.30
2022-12-11T02:21:12.585Z,8.73
2022-12-11T02:24:06.770Z,12.23
2022-12-11T02:26:42.323Z,8.13
2022-12-11T02:29:16.608Z,7.30
2022-12-11T02:31:53.370Z,8.25
2022-12-11T02:34:43.469Z,7.55
2022-12-11T02:37:19.078Z,7.60
2022-12-11T02:39:49.151Z,7.88
2022-12-11T02:42:18.446Z,7.88
2022-12-11T02:44:48.361Z,8.13
2022-12-11T02:47:18.253Z,8.20
2022-12-11T02:49:49.565Z,8.20
2022-12-11T02:52:21.789Z,7.18
2022-12-11T02:54:51.726Z,7.47
2022-12-11T02:57:27.764Z,7.20
2022-12-11T02:59:55.092Z,7.47
2022-12-11T03:02:22.234Z,7.03
2022-12-11T03:04:49.557Z,6.80
2022-12-11T03:07:27.725Z,7.45
2022-12-11T03:09:55.467Z,7.28
2022-12-11T03:12:29.228Z,7.22
2022-12-11T03:15:00.771Z,7.32
2022-12-11T03:17:35.752Z,7.57
2022-12-11T03:20:10.589Z,6.75
2022-12-11T03:22:45.797Z,6.80
2022-12-11T03:25:20.291Z,8.13
2022-12-11T03:27:57.387Z,9.32
2022-12-11T03:30:25.970Z,8.45
2022-12-11T03:33:02.942Z,8.88
2022-12-11T03:35:37.564Z,7.18
2022-12-11T03:40:36.345Z,8.05
2022-12-11T03:43:04.199Z,8.93
2022-12-11T03:45:32.844Z,8.25
2022-12-11T03:48:02.814Z,8.13
2022-12-11T03:50:32.343Z,8.05
2022-12-11T03:53:01.660Z,8.32
2022-12-11T03:55:30.779Z,7.50
2022-12-11T03:57:57.832Z,10.52
2022-12-11T04:00:25.473Z,8.18
2022-12-11T04:03:13.974Z,7.55
2022-12-11T04:05:44.440Z,8.30
2022-12-11T04:08:11.774Z,7.82
2022-12-11T04:10:39.659Z,7.82
2022-12-11T04:13:07.125Z,8.15
2022-12-11T04:15:34.684Z,7.97
2022-12-11T04:18:21.709Z,7.60
2022-12-11T04:21:08.772Z,7.20
2022-12-11T04:23:55.858Z,7.90
2022-12-11T04:26:23.107Z,7.00
2022-12-11T04:28:50.770Z,7.57
2022-12-11T04:31:21.425Z,9.30
2022-12-11T04:33:48.941Z,7.53
2022-12-11T04:36:16.528Z,7.70
2022-12-11T04:38:43.617Z,7.47
2022-12-11T04:41:14.017Z,7.35
2022-12-11T04:43:41.385Z,6.63
2022-12-11T04:46:13.211Z,7.22
2022-12-11T04:48:41.091Z,6.57
2022-12-11T04:51:09.191Z,6.45
2022-12-11T04:53:36.442Z,5.75
2022-12-11T04:56:08.913Z,5.65
2022-12-11T04:58:37.146Z,5.60
2022-12-11T05:01:09.208Z,5.13
2022-12-11T05:03:36.636Z,6.38
2022-12-11T05:06:04.134Z,5.03
2022-12-11T05:08:31.361Z,6.15
2022-12-11T05:11:00.568Z,6.63
2022-12-11T05:13:29.601Z,5.68
2022-12-11T05:15:57.562Z,5.95
2022-12-11T05:18:25.550Z,5.80
2022-12-11T05:20:57.259Z,5.63
2022-12-11T05:23:24.467Z,5.50
2022-12-11T05:25:54.910Z,5.10
2022-12-11T05:28:24.969Z,5.65
2022-12-11T05:30:56.896Z,5.20
2022-12-11T05:33:25.328Z,6.07
2022-12-11T05:35:52.440Z,5.78
2022-12-11T05:38:20.271Z,5.65
2022-12-11T05:40:57.564Z,6.60
2022-12-11T05:43:25.079Z,5.75
2022-12-11T05:45:52.208Z,6.20
2022-12-11T05:48:19.296Z,6.10
2022-12-11T05:50:57.581Z,5.68
2022-12-11T05:53:24.666Z,5.88
2022-12-11T05:55:51.874Z,5.63
2022-12-11T05:58:20.981Z,5.28
2022-12-11T06:00:48.865Z,5.38
2022-12-11T06:03:16.121Z,5.45
2022-12-11T06:05:43.712Z,5.70
2022-12-11T06:08:10.944Z,5.82
2022-12-11T06:10:38.114Z,5.78
2022-12-11T06:13:05.202Z,5.55
2022-12-11T06:15:32.885Z,6.47
2022-12-11T06:18:00.093Z,6.10
2022-12-11T06:20:27.209Z,6.35
2022-12-11T06:22:54.313Z,6.85
2022-12-11T06:25:21.429Z,7.55
2022-12-11T06:27:48.440Z,6.47
2022-12-11T06:30:16.660Z,6.80
2022-12-11T06:32:44.188Z,6.60
2022-12-11T06:35:11.944Z,5.93
2022-12-11T06:37:40.548Z,6.60
2022-12-11T06:40:10.562Z,6.45
2022-12-11T06:42:37.557Z,6.28
2022-12-11T06:45:05.248Z,6.25
2022-12-11T06:47:33.224Z,5.65
2022-12-11T06:50:01.261Z,5.38
2022-12-11T06:52:28.819Z,5.25
2022-12-11T06:54:57.051Z,5.57
2022-12-11T06:57:24.278Z,5.72
2022-12-11T06:59:51.355Z,5.93
2022-12-11T07:02:19.789Z,5.72
2022-12-11T07:04:53.333Z,5.03
2022-12-11T07:07:22.207Z,5.55
2022-12-11T07:09:49.292Z,6.00
2022-12-11T07:12:17.383Z,6.00
2022-12-11T07:14:44.400Z,6.13
2022-12-11T07:17:11.427Z,6.22
2022-12-11T07:19:38.552Z,7.13
2022-12-11T07:22:05.520Z,6.22
2022-12-11T07:24:32.593Z,6.55
2022-12-11T07:26:59.734Z,12.10
2022-12-11T07:29:26.825Z,20.05
2022-12-11T07:31:54.182Z,23.67
2022-12-11T07:34:21.367Z,22.40
2022-12-11T07:36:48.468Z,16.23
2022-12-11T07:39:16.178Z,13.98
2022-12-11T07:41:43.228Z,10.80
2022-12-11T07:44:11.720Z,10.57
2022-12-11T07:46:40.019Z,7.82
2022-12-11T07:49:07.564Z,7.85
2022-12-11T07:51:36.680Z,8.15
2022-12-11T07:54:08.279Z,8.13
2022-12-11T07:56:35.703Z,11.05
2022-12-11T07:59:05.032Z,10.07
2022-12-11T08:01:36.634Z,10.23
2022-12-11T08:04:06.190Z,9.93
2022-12-11T08:06:35.415Z,10.73
2022-12-11T08:09:04.899Z,10.98
2022-12-11T08:11:31.916Z,9.20
2022-12-11T08:13:59.808Z,9.18
2022-12-11T08:16:27.341Z,11.13
2022-12-11T08:18:54.424Z,11.10
2022-12-11T08:21:24.483Z,9.20
2022-12-11T08:23:52.688Z,8.55
2022-12-11T08:26:24.666Z,6.57
2022-12-11T08:28:52.522Z,6.00
2022-12-11T08:31:19.659Z,5.22
2022-12-11T08:33:47.654Z,5.15
2022-12-11T08:36:18.453Z,5.18
2022-12-11T08:38:46.711Z,4.95
2022-12-11T08:41:17.636Z,5.78
2022-12-11T08:43:44.866Z,5.25
2022-12-11T08:46:12.938Z,4.80
2022-12-11T08:48:41.924Z,4.85
2022-12-11T08:51:13.449Z,5.07
2022-12-11T08:53:40.940Z,4.47
2022-12-11T08:56:10.843Z,4.90
2022-12-11T08:58:38.512Z,4.78
2022-12-11T09:01:11.600Z,6.25
2022-12-11T09:03:40.109Z,7.07
2022-12-11T09:06:09.376Z,6.95
2022-12-11T09:08:36.872Z,6.00
2022-12-11T09:11:07.470Z,5.97
2022-12-11T09:13:34.629Z,4.22
2022-12-11T09:16:05.601Z,3.95
2022-12-11T09:18:33.004Z,3.75
2022-12-11T09:21:04.764Z,4.45
2022-12-11T09:23:31.994Z,4.45
2022-12-11T09:25:59.454Z,5.38
2022-12-11T09:28:26.671Z,5.25
2022-12-11T09:30:53.752Z,6.03
2022-12-11T09:33:20.910Z,5.00
2022-12-11T09:35:58.200Z,6.20
2022-12-11T09:38:26.048Z,5.50
2022-12-11T09:40:53.572Z,5.47
2022-12-11T09:43:32.590Z,5.55
2022-12-11T09:46:03.307Z,6.00
2022-12-11T09:48:34.221Z,5.32
2022-12-11T09:51:14.435Z,4.95
2022-12-11T09:53:41.867Z,5.45
2022-12-11T09:56:09.869Z,5.10
2022-12-11T09:58:37.123Z,5.05
2022-12-11T10:01:15.203Z,5.60
2022-12-11T10:04:03.353Z,4.80
2022-12-11T10:06:54.788Z,5.75
2022-12-11T10:09:27.877Z,5.20
2022-12-11T10:12:06.711Z,5.22
2022-12-11T10:14:53.737Z,4.68
2022-12-11T10:17:27.648Z,4.60
2022-12-11T10:19:58.303Z,3.05
2022-12-11T10:22:29.995Z,4.93
2022-12-11T10:25:17.316Z,4.63
2022-12-11T10:27:45.271Z,4.32
2022-12-11T10:30:13.617Z,4.78
2022-12-11T10:32:41.647Z,4.50
2022-12-11T10:35:18.970Z,5.10
2022-12-11T10:37:46.087Z,5.28
2022-12-11T10:40:13.891Z,4.85
2022-12-11T10:42:51.315Z,5.40
2022-12-11T10:45:18.456Z,5.25
2022-12-11T10:47:45.999Z,4.85
2022-12-11T10:50:29.052Z,5.07
2022-12-11T10:52:56.569Z,4.90
2022-12-11T10:55:28.599Z,5.45
2022-12-11T10:57:59.734Z,5.45
2022-12-11T11:00:37.754Z,5.47
2022-12-11T11:03:19.959Z,5.88
2022-12-11T11:05:49.551Z,5.40
2022-12-11T11:08:22.849Z,5.13
2022-12-11T11:10:56.708Z,5.80
2022-12-11T11:13:26.617Z,4.53
2022-12-11T11:16:03.064Z,5.70
2022-12-11T11:18:32.089Z,6.35
2022-12-11T11:21:00.840Z,5.85
2022-12-11T11:23:28.508Z,6.57
2022-12-11T11:25:58.699Z,6.38
2022-12-11T11:28:31.686Z,6.43
2022-12-11T11:31:10.397Z,6.00
2022-12-11T11:33:45.667Z,5.70
2022-12-11T11:36:23.292Z,6.22
2022-12-11T11:38:59.104Z,6.43
2022-12-11T11:41:34.860Z,6.50
2022-12-11T11:44:07.407Z,5.80
2022-12-11T11:46:37.989Z,5.60
2022-12-11T11:49:14.464Z,6.35
2022-12-11T11:51:46.657Z,6.90
2022-12-11T11:54:27.730Z,6.30
2022-12-11T11:56:57.139Z,5.85
2022-12-11T11:59:31.268Z,6.47
2022-12-11T12:01:58.720Z,6.30
2022-12-11T12:04:32.677Z,6.38
2022-12-11T12:07:39.562Z,6.38
2022-12-11T12:10:29.294Z,6.90
2022-12-11T12:13:23.941Z,6.65
2022-12-11T12:15:59.891Z,6.88
2022-12-11T12:18:45.543Z,7.57
2022-12-11T12:21:29.178Z,8.30
2022-12-11T12:24:19.625Z,7.18
2022-12-11T12:26:53.693Z,7.13
2022-12-11T12:29:41.727Z,6.47
2022-12-11T12:32:14.609Z,7.43
2022-12-11T12:34:56.405Z,8.70
2022-12-11T12:37:31.636Z,9.20
2022-12-11T12:40:26.110Z,8.13
2022-12-11T12:43:13.073Z,8.23
2022-12-11T12:45:51.735Z,7.85
2022-12-11T12:48:19.848Z,8.02
2022-12-11T12:50:51.004Z,9.60
2022-12-11T12:53:23.805Z,10.02
2022-12-11T12:55:53.058Z,10.40
2022-12-11T12:58:27.712Z,9.95
2022-12-11T13:01:06.081Z,9.13
2022-12-11T13:03:48.821Z,8.18
2022-12-11T13:06:16.439Z,8.63
2022-12-11T13:08:48.299Z,8.85
2022-12-11T13:11:18.612Z,8.98
2022-12-11T13:13:54.943Z,8.93
2022-12-11T13:16:26.916Z,7.90
2022-12-11T13:18:54.570Z,8.18
2022-12-11T13:21:30.611Z,8.52
2022-12-11T13:24:21.057Z,8.25
2022-12-11T13:26:49.657Z,8.77
2022-12-11T13:29:37.766Z,9.55
2022-12-11T13:32:24.710Z,9.05
2022-12-11T13:34:57.293Z,8.65
2022-12-11T13:37:33.914Z,10.60
2022-12-11T13:40:08.453Z,10.15
2022-12-11T13:45:06.066Z,9.32
2022-12-11T13:47:35.645Z,9.18
2022-12-11T13:50:21.788Z,8.82
2022-12-11T13:52:58.654Z,8.63
2022-12-11T13:55:33.066Z,9.13
2022-12-11T13:58:00.505Z,9.52
2022-12-11T14:00:32.162Z,9.07
2022-12-11T14:03:04.531Z,9.05
2022-12-11T14:05:31.938Z,10.00
2022-12-11T14:08:05.352Z,9.25
2022-12-11T14:10:33.209Z,9.10
2022-12-11T14:13:05.723Z,9.07
2022-12-11T14:15:35.502Z,9.52
2022-12-11T14:18:04.211Z,9.52
2022-12-11T14:20:34.179Z,9.25
2022-12-11T14:23:18.310Z,9.25
2022-12-11T14:25:56.532Z,9.50
2022-12-11T14:28:27.813Z,9.93
2022-12-11T14:30:59.254Z,9.65
2022-12-11T14:33:32.721Z,9.68
2022-12-11T14:36:02.345Z,9.30
2022-12-11T14:38:37.247Z,10.07
2022-12-11T14:41:13.833Z,9.43
2022-12-11T14:43:48.549Z,10.05
2022-12-11T14:46:22.124Z,9.50
2022-12-11T14:49:00.745Z,6.70
2022-12-11T14:51:33.893Z,9.88
2022-12-11T14:54:03.701Z,9.85
2022-12-11T14:56:31.634Z,9.07
2022-12-11T14:59:02.955Z,9.63
2022-12-11T15:01:32.967Z,9.15
2022-12-11T15:04:07.265Z,9.30
2022-12-11T15:06:42.892Z,9.70
2022-12-11T15:09:17.631Z,10.65
2022-12-11T15:14:14.068Z,7.07
2022-12-11T15:16:43.050Z,8.45
2022-12-11T15:19:29.091Z,8.70
2022-12-11T15:22:04.137Z,8.70
2022-12-11T15:24:39.209Z,10.00
2022-12-11T15:27:07.970Z,9.85
2022-12-11T15:29:38.489Z,8.60
2022-12-11T15:32:09.244Z,9.05
2022-12-11T15:34:43.045Z,8.43
2022-12-11T15:37:19.763Z,8.45
2022-12-11T15:39:47.129Z,9.07
2022-12-11T15:42:24.536Z,9.20
2022-12-11T15:44:52.351Z,8.60
2022-12-11T15:47:24.489Z,8.30
2022-12-11T15:49:56.286Z,8.00
2022-12-11T15:52:23.590Z,7.32
2022-12-11T15:54:50.693Z,7.78
2022-12-11T15:57:21.879Z,6.68
2022-12-11T15:59:51.629Z,6.40
2022-12-11T16:02:18.971Z,7.07
2022-12-11T16:04:46.314Z,7.32
2022-12-11T16:07:18.484Z,6.90
2022-12-11T16:09:47.258Z,7.07
2022-12-11T16:12:14.720Z,7.32
2022-12-11T16:14:42.689Z,7.95
2022-12-11T16:17:13.816Z,8.15
2022-12-11T16:19:43.145Z,8.80
2022-12-11T16:22:11.724Z,8.38
2022-12-11T16:24:40.113Z,8.20
2022-12-11T16:27:09.722Z,7.68
2022-12-11T16:29:38.898Z,7.13
2022-12-11T16:32:08.589Z,5.75
2022-12-11T16:34:37.337Z,5.55
2022-12-11T16:37:07.183Z,4.70
2022-12-11T16:39:35.530Z,5.72
2022-12-11T16:42:02.887Z,6.40
2022-12-11T16:44:30.537Z,6.25
2022-12-11T16:46:58.586Z,5.38
2022-12-11T16:49:25.752Z,5.75
2022-12-11T16:51:53.022Z,5.25
2022-12-11T16:54:20.181Z,5.72
2022-12-11T16:56:47.292Z,5.82
2022-12-11T16:59:14.482Z,5.05
2022-12-11T17:01:42.652Z,5.25
2022-12-11T17:04:10.510Z,5.60
2022-12-11T17:06:37.604Z,5.80
2022-12-11T17:09:04.823Z,5.28
2022-12-11T17:11:31.936Z,5.82
2022-12-11T17:14:00.407Z,6.05
2022-12-11T17:16:30.634Z,6.68
2022-12-11T17:19:00.821Z,7.95
2022-12-11T17:21:28.038Z,8.98
2022-12-11T17:23:55.227Z,11.20
2022-12-11T17:26:22.352Z,14.18
2022-12-11T17:28:49.599Z,9.15
2022-12-11T17:31:19.486Z,7.15
2022-12-11T17:33:47.802Z,5.85
2022-12-11T17:36:17.065Z,7.90
2022-12-11T17:38:44.984Z,7.03
2022-12-11T17:41:20.096Z,7.80
2022-12-11T17:43:49.471Z,10.43
2022-12-11T17:46:18.177Z,15.32
2022-12-11T17:48:46.063Z,11.70
2022-12-11T17:51:14.709Z,24.30
2022-12-11T17:53:41.768Z,28.40
2022-12-11T17:56:09.416Z,10.73
2022-12-11T17:58:36.415Z,10.35
2022-12-11T18:01:08.219Z,7.15
2022-12-11T18:03:36.784Z,5.93
2022-12-11T18:06:07.747Z,6.18
2022-12-11T18:08:35.125Z,5.75
2022-12-11T18:11:13.823Z,6.07
2022-12-11T18:13:41.912Z,7.00
2022-12-11T18:16:13.645Z,6.28
2022-12-11T18:18:41.129Z,6.43
2022-12-11T18:21:08.666Z,6.38
2022-12-11T18:23:35.857Z,7.38
2022-12-11T18:26:03.059Z,8.10
2022-12-11T18:28:32.408Z,8.25
2022-12-11T18:31:01.119Z,6.90
2022-12-11T18:33:29.395Z,6.30
2022-12-11T18:35:56.830Z,7.38
2022-12-11T18:38:24.447Z,6.75
2022-12-11T18:40:51.900Z,6.57
2022-12-11T18:43:19.333Z,6.85
2022-12-11T18:45:46.535Z,6.75
2022-12-11T18:48:14.525Z,7.00
2022-12-11T18:50:45.915Z,7.38
2022-12-11T18:53:13.705Z,6.80
2022-12-11T18:55:44.052Z,5.55
2022-12-11T18:58:14.476Z,6.13
2022-12-11T19:00:42.680Z,5.50
2022-12-11T19:03:11.186Z,7.00
2022-12-11T19:05:42.401Z,7.00
2022-12-11T19:08:12.057Z,6.47
2022-12-11T19:10:45.863Z,6.85
2022-12-11T19:13:14.181Z,4.90
2022-12-11T19:15:43.123Z,6.38
2022-12-11T19:18:11.420Z,6.43
2022-12-11T19:20:48.916Z,6.18
2022-12-11T19:23:16.825Z,5.90
2022-12-11T19:25:46.911Z,6.97
2022-12-11T19:28:15.034Z,6.72
2022-12-11T19:30:45.116Z,7.03
2022-12-11T19:33:13.159Z,6.65
2022-12-11T19:35:41.185Z,6.72
2022-12-11T19:38:08.652Z,7.05
2022-12-11T19:40:41.126Z,7.10
2022-12-11T19:43:08.870Z,6.45
2022-12-11T19:45:36.579Z,6.93
2022-12-11T19:48:03.866Z,7.38
2022-12-11T19:50:31.764Z,7.47
2022-12-11T19:52:59.183Z,7.43
2022-12-11T19:55:26.338Z,7.35
2022-12-11T19:57:53.661Z,7.65
2022-12-11T20:00:20.869Z,8.55
2022-12-11T20:02:49.226Z,8.13
2022-12-11T20:05:17.010Z,7.88
2022-12-11T20:07:45.550Z,8.35
2022-12-11T20:10:12.907Z,7.75
2022-12-11T20:12:40.058Z,8.98
2022-12-11T20:15:07.619Z,8.70
2022-12-11T20:17:36.833Z,7.70
2022-12-11T20:20:04.408Z,9.25
2022-12-11T20:22:31.737Z,9.43
2022-12-11T20:24:59.601Z,9.52
2022-12-11T20:27:28.767Z,10.13
2022-12-11T20:29:56.359Z,11.25
2022-12-11T20:32:23.891Z,11.63
2022-12-11T20:34:54.971Z,10.60
2022-12-11T20:37:22.329Z,10.15
2022-12-11T20:39:49.567Z,10.02
2022-12-11T20:42:16.927Z,9.93
2022-12-11T20:44:49.286Z,8.80
2022-12-11T20:47:20.064Z,9.55
2022-12-11T20:49:48.804Z,9.10
2022-12-11T20:52:18.000Z,9.35
2022-12-11T20:54:45.815Z,5.78
2022-12-11T20:57:15.256Z,5.78
2022-12-11T20:59:44.473Z,4.78
2022-12-11T21:02:13.066Z,6.00
2022-12-11T21:04:41.349Z,5.60
2022-12-11T21:07:10.182Z,6.57
2022-12-11T21:09:38.232Z,8.30
2022-12-11T21:12:06.741Z,8.05
2022-12-11T21:14:34.056Z,9.02
2022-12-11T21:17:01.378Z,9.38
2022-12-11T21:19:28.727Z,9.63
2022-12-11T21:21:56.450Z,8.98
2022-12-11T21:24:26.810Z,8.32
2022-12-11T21:26:56.522Z,8.73
2022-12-11T21:29:26.297Z,9.23
2022-12-11T21:31:53.850Z,8.98
2022-12-11T21:34:25.260Z,9.07
2022-12-11T21:36:56.459Z,8.93
2022-12-11T21:39:25.440Z,8.52
2022-12-11T21:41:53.262Z,9.75
2022-12-11T21:47:07.463Z,9.45
2022-12-11T21:49:36.958Z,9.88
2022-12-11T21:52:04.714Z,9.63
2022-12-11T21:54:32.092Z,10.80
2022-12-11T21:56:59.154Z,10.52
2022-12-11T21:59:27.829Z,11.50
2022-12-11T22:01:55.123Z,9.52
2022-12-11T22:04:22.185Z,9.55
2022-12-11T22:06:49.233Z,9.63
2022-12-11T22:09:17.931Z,8.95
2022-12-11T22:11:46.331Z,8.80
2022-12-11T22:14:15.565Z,9.85
2022-12-11T22:16:43.665Z,10.63
2022-12-11T22:19:11.090Z,10.60
2022-12-11T22:21:39.006Z,9.68
2022-12-11T22:24:06.376Z,8.95
2022-12-11T22:26:33.495Z,8.85
2022-12-11T22:29:00.539Z,8.38
2022-12-11T22:31:28.253Z,9.07
2022-12-11T22:33:55.458Z,9.00
2022-12-11T22:36:25.258Z,9.60
2022-12-11T22:38:53.002Z,8.77
2022-12-11T22:41:26.660Z,8.57
2022-12-11T22:43:54.593Z,8.68
2022-12-11T22:46:24.779Z,7.90
2022-12-11T22:48:52.075Z,8.98
2022-12-11T22:51:19.857Z,8.38
2022-12-11T22:53:47.445Z,8.55
2022-12-11T22:56:15.202Z,9.52
2022-12-11T22:58:42.303Z,10.43
2022-12-11T23:01:13.472Z,10.02
2022-12-11T23:03:41.036Z,10.57
2022-12-11T23:06:11.316Z,10.27
2022-12-11T23:08:40.415Z,10.07
2022-12-11T23:11:14.825Z,10.02
2022-12-11T23:13:42.742Z,10.48
2022-12-11T23:16:10.807Z,10.27
2022-12-11T23:18:38.871Z,10.27
2022-12-11T23:21:06.631Z,9.75
2022-12-11T23:23:33.893Z,9.98
2022-12-11T23:26:00.985Z,9.38
2022-12-11T23:28:28.207Z,9.77
2022-12-11T23:30:55.384Z,10.13
2022-12-11T23:33:22.548Z,10.63
2022-12-11T23:35:49.654Z,10.18
2022-12-11T23:38:17.515Z,10.05
2022-12-11T23:40:44.994Z,9.63
2022-12-11T23:43:12.146Z,10.30
2022-12-11T23:45:39.165Z,10.88
2022-12-11T23:48:06.289Z,9.88
2022-12-11T23:50:33.276Z,10.18
2022-12-11T23:53:00.554Z,11.07
2022-12-11T23:55:28.183Z,10.50
2022-12-11T23:57:56.179Z,11.70
